JAL401 RJAA-EGLL
Flight info
| Callsign | JAL401 |
|---|---|
| Flight time | N/A |
| Altitude | 37000 |
| Route | GULBO Y808 PUTER A590 PASRO 4831N16111E NATES R338 MARCC JUJXI OMEKA 81N20 82N00 8280N N82W060 8040N 7420N 6510N MATIK BESGA ELBUS UL612 LAKEY NUGRA |
| Aircraft | B77W/H-SDE1E2E3FGHIJ2J3J4J5M1RWXY/LB1D1 |
Departure
| Time | N/A |
|---|---|
| Airport | Narita International Airport (RJAA) |
Arrival
| Time | 2026-05-05 02:26 |
|---|---|
| Airport | London Heathrow Airport (EGLL) |
| Time | Latitude | Longitude | Altitude | Speed | Heading |
|---|---|---|---|---|---|
| 2026-05-04 23:40 | 72.18500 | -17.13596 | 37283 ft | 519 kts | 156° |
| 2026-05-04 23:41 | 72.12109 | -17.04638 | 37283 ft | 520 kts | 156° |
| 2026-05-04 23:41 | 72.05463 | -16.95392 | 37283 ft | 519 kts | 156° |
| 2026-05-04 23:42 | 71.98805 | -16.86203 | 37283 ft | 520 kts | 156° |
| 2026-05-04 23:42 | 71.92143 | -16.77078 | 37284 ft | 521 kts | 156° |
| 2026-05-04 23:43 | 71.85501 | -16.68054 | 37284 ft | 522 kts | 156° |
| 2026-05-04 23:43 | 71.79092 | -16.59412 | 37284 ft | 521 kts | 156° |
| 2026-05-04 23:44 | 71.72432 | -16.50497 | 37284 ft | 521 kts | 156° |
| 2026-05-04 23:44 | 71.65746 | -16.41617 | 37285 ft | 521 kts | 157° |
| 2026-05-04 23:45 | 71.59039 | -16.32776 | 37285 ft | 521 kts | 157° |
| 2026-05-04 23:45 | 71.52671 | -16.24446 | 37285 ft | 521 kts | 157° |
| 2026-05-04 23:46 | 71.45954 | -16.15723 | 37285 ft | 521 kts | 157° |
| 2026-05-04 23:46 | 71.39297 | -16.07143 | 37261 ft | 523 kts | 157° |
| 2026-05-04 23:47 | 71.32541 | -15.98501 | 37216 ft | 523 kts | 157° |
| 2026-05-04 23:47 | 71.25819 | -15.89966 | 37215 ft | 522 kts | 157° |
| 2026-05-04 23:48 | 71.19221 | -15.81652 | 37216 ft | 523 kts | 158° |
| 2026-05-04 23:48 | 71.12464 | -15.73200 | 37217 ft | 524 kts | 158° |
| 2026-05-04 23:49 | 71.05749 | -15.64862 | 37217 ft | 524 kts | 158° |
| 2026-05-04 23:49 | 70.98941 | -15.56472 | 37219 ft | 525 kts | 158° |
| 2026-05-04 23:50 | 70.92196 | -15.48220 | 37220 ft | 525 kts | 158° |
| 2026-05-04 23:50 | 70.85414 | -15.39984 | 37213 ft | 525 kts | 158° |
| 2026-05-04 23:51 | 70.78610 | -15.31783 | 37212 ft | 525 kts | 158° |
| 2026-05-04 23:51 | 70.71810 | -15.23646 | 37213 ft | 526 kts | 158° |
| 2026-05-04 23:52 | 70.65006 | -15.15563 | 37214 ft | 526 kts | 158° |
| 2026-05-04 23:52 | 70.58193 | -15.07529 | 37211 ft | 526 kts | 159° |
| 2026-05-04 23:53 | 70.51755 | -14.99990 | 37212 ft | 526 kts | 159° |
| 2026-05-04 23:53 | 70.44886 | -14.92004 | 37213 ft | 526 kts | 159° |
| 2026-05-04 23:54 | 70.38356 | -14.84465 | 37214 ft | 527 kts | 159° |
| 2026-05-04 23:54 | 70.31516 | -14.76624 | 37215 ft | 527 kts | 159° |
| 2026-05-04 23:55 | 70.24657 | -14.68817 | 37217 ft | 527 kts | 159° |
| 2026-05-04 23:56 | 70.14393 | -14.57237 | 37218 ft | 527 kts | 159° |
| 2026-05-04 23:56 | 70.07553 | -14.49589 | 37220 ft | 527 kts | 159° |
| 2026-05-04 23:57 | 70.00685 | -14.41964 | 37221 ft | 528 kts | 159° |
| 2026-05-04 23:57 | 69.94179 | -14.34789 | 37220 ft | 528 kts | 159° |
| 2026-05-04 23:58 | 69.87286 | -14.27241 | 37127 ft | 528 kts | 160° |
| 2026-05-04 23:58 | 69.80709 | -14.20087 | 37117 ft | 527 kts | 160° |
| 2026-05-04 23:59 | 69.73830 | -14.12657 | 37118 ft | 527 kts | 160° |
| 2026-05-04 23:59 | 69.66985 | -14.05314 | 37120 ft | 528 kts | 160° |
| 2026-05-05 00:00 | 69.60102 | -13.97981 | 37121 ft | 528 kts | 160° |
| 2026-05-05 00:00 | 69.53198 | -13.90676 | 37126 ft | 529 kts | 160° |
| 2026-05-05 00:01 | 69.46304 | -13.83433 | 37128 ft | 529 kts | 160° |
| 2026-05-05 00:01 | 69.39392 | -13.76219 | 37129 ft | 528 kts | 160° |
| 2026-05-05 00:02 | 69.32472 | -13.69047 | 37130 ft | 529 kts | 160° |
| 2026-05-05 00:02 | 69.25594 | -13.61967 | 37132 ft | 529 kts | 160° |
| 2026-05-05 00:03 | 69.18661 | -13.54878 | 37134 ft | 529 kts | 160° |
| 2026-05-05 00:03 | 69.12884 | -13.49008 | 37135 ft | 530 kts | 161° |
| 2026-05-05 00:04 | 69.05939 | -13.41995 | 37136 ft | 530 kts | 161° |
| 2026-05-05 00:04 | 68.99322 | -13.35357 | 37138 ft | 530 kts | 161° |
| 2026-05-05 00:05 | 68.92379 | -13.28438 | 37140 ft | 531 kts | 161° |
| 2026-05-05 00:05 | 68.84292 | -13.20436 | 37142 ft | 531 kts | 161° |
| 2026-05-05 00:06 | 68.78456 | -13.14700 | 37144 ft | 530 kts | 161° |
| 2026-05-05 00:06 | 68.71531 | -13.07935 | 37145 ft | 531 kts | 161° |
| 2026-05-05 00:07 | 68.64551 | -13.01161 | 37147 ft | 531 kts | 161° |
| 2026-05-05 00:07 | 68.57897 | -12.94746 | 37148 ft | 531 kts | 161° |
| 2026-05-05 00:08 | 68.50935 | -12.88076 | 37150 ft | 531 kts | 161° |
| 2026-05-05 00:08 | 68.43945 | -12.81423 | 37152 ft | 531 kts | 161° |
| 2026-05-05 00:09 | 68.37002 | -12.74858 | 37153 ft | 531 kts | 161° |
| 2026-05-05 00:09 | 68.30001 | -12.68281 | 37155 ft | 532 kts | 161° |
| 2026-05-05 00:10 | 68.23033 | -12.61777 | 37157 ft | 532 kts | 162° |
| 2026-05-05 00:10 | 68.15992 | -12.55249 | 37159 ft | 532 kts | 162° |
| 2026-05-05 00:11 | 68.09017 | -12.48823 | 37161 ft | 532 kts | 162° |
| 2026-05-05 00:11 | 68.02031 | -12.42428 | 37183 ft | 529 kts | 162° |
| 2026-05-05 00:12 | 67.95078 | -12.36103 | 37186 ft | 529 kts | 162° |
| 2026-05-05 00:12 | 67.88094 | -12.29790 | 37188 ft | 530 kts | 162° |
| 2026-05-05 00:13 | 67.81411 | -12.23787 | 37189 ft | 530 kts | 162° |
| 2026-05-05 00:13 | 67.74462 | -12.17583 | 37191 ft | 530 kts | 162° |
| 2026-05-05 00:14 | 67.67472 | -12.11383 | 37193 ft | 530 kts | 162° |
| 2026-05-05 00:14 | 67.60480 | -12.05218 | 37200 ft | 530 kts | 162° |
| 2026-05-05 00:15 | 67.53475 | -11.99081 | 37208 ft | 530 kts | 162° |
| 2026-05-05 00:15 | 67.46596 | -11.93092 | 37209 ft | 530 kts | 162° |
| 2026-05-05 00:16 | 67.39658 | -11.87088 | 37211 ft | 530 kts | 162° |
| 2026-05-05 00:16 | 67.32683 | -11.81089 | 37212 ft | 531 kts | 162° |
| 2026-05-05 00:17 | 67.25658 | -11.75084 | 37209 ft | 531 kts | 162° |
| 2026-05-05 00:17 | 67.18637 | -11.69120 | 37209 ft | 530 kts | 162° |
| 2026-05-05 00:18 | 67.11636 | -11.63209 | 37210 ft | 531 kts | 163° |
| 2026-05-05 00:18 | 67.04602 | -11.57305 | 37212 ft | 531 kts | 163° |
| 2026-05-05 00:19 | 66.97894 | -11.51711 | 37213 ft | 532 kts | 163° |
| 2026-05-05 00:19 | 66.90893 | -11.45904 | 37214 ft | 532 kts | 163° |
| 2026-05-05 00:20 | 66.83845 | -11.40095 | 37215 ft | 532 kts | 163° |
| 2026-05-05 00:20 | 66.76791 | -11.34316 | 37215 ft | 532 kts | 163° |
| 2026-05-05 00:21 | 66.69778 | -11.28605 | 37216 ft | 532 kts | 163° |
| 2026-05-05 00:21 | 66.62691 | -11.22868 | 37216 ft | 532 kts | 163° |
| 2026-05-05 00:22 | 66.55675 | -11.17222 | 37217 ft | 532 kts | 163° |
| 2026-05-05 00:22 | 66.48598 | -11.11562 | 37218 ft | 532 kts | 163° |
| 2026-05-05 00:23 | 66.41531 | -11.05943 | 37218 ft | 532 kts | 163° |
| 2026-05-05 00:23 | 66.34491 | -11.00378 | 37219 ft | 532 kts | 163° |
| 2026-05-05 00:24 | 66.27417 | -10.94820 | 37219 ft | 532 kts | 163° |
| 2026-05-05 00:24 | 66.20362 | -10.89308 | 37219 ft | 533 kts | 164° |
| 2026-05-05 00:25 | 66.13281 | -10.83809 | 37219 ft | 533 kts | 164° |
| 2026-05-05 00:25 | 66.06243 | -10.78375 | 37219 ft | 533 kts | 164° |
| 2026-05-05 00:26 | 65.99163 | -10.72941 | 37219 ft | 533 kts | 164° |
| 2026-05-05 00:26 | 65.92060 | -10.67520 | 37218 ft | 534 kts | 164° |
| 2026-05-05 00:27 | 65.84947 | -10.62124 | 37204 ft | 535 kts | 164° |
| 2026-05-05 00:27 | 65.77859 | -10.56778 | 37221 ft | 534 kts | 165° |
| 2026-05-05 00:28 | 65.70751 | -10.51447 | 37221 ft | 534 kts | 165° |
| 2026-05-05 00:28 | 65.63636 | -10.46141 | 37220 ft | 534 kts | 165° |
| 2026-05-05 00:29 | 65.56574 | -10.40905 | 37218 ft | 534 kts | 165° |
| 2026-05-05 00:29 | 65.49459 | -10.35659 | 37216 ft | 534 kts | 165° |
| 2026-05-05 00:30 | 65.42330 | -10.30433 | 37214 ft | 534 kts | 165° |
| 2026-05-05 00:30 | 65.35230 | -10.25258 | 37212 ft | 534 kts | 165° |
| 2026-05-05 00:31 | 65.28114 | -10.20058 | 37200 ft | 535 kts | 165° |
| 2026-05-05 00:31 | 65.20990 | -10.14892 | 37195 ft | 535 kts | 165° |
| 2026-05-05 00:32 | 65.13895 | -10.09838 | 37193 ft | 535 kts | 165° |
| 2026-05-05 00:32 | 65.06727 | -10.04756 | 37190 ft | 535 kts | 166° |
| 2026-05-05 00:33 | 64.99994 | -9.99996 | 37187 ft | 536 kts | 166° |
| 2026-05-05 00:33 | 64.92765 | -9.95446 | 37184 ft | 535 kts | 169° |
| 2026-05-05 00:34 | 64.85527 | -9.91571 | 37181 ft | 534 kts | 170° |
| 2026-05-05 00:34 | 64.78278 | -9.87628 | 37178 ft | 534 kts | 169° |
| 2026-05-05 00:35 | 64.71028 | -9.83619 | 37176 ft | 535 kts | 169° |
| 2026-05-05 00:35 | 64.63823 | -9.79589 | 37172 ft | 535 kts | 169° |
| 2026-05-05 00:36 | 64.56553 | -9.75467 | 37167 ft | 535 kts | 169° |
| 2026-05-05 00:36 | 64.49351 | -9.71448 | 37150 ft | 535 kts | 169° |
| 2026-05-05 00:37 | 64.42095 | -9.67436 | 37143 ft | 535 kts | 169° |
| 2026-05-05 00:37 | 64.34837 | -9.63450 | 37139 ft | 535 kts | 169° |
| 2026-05-05 00:38 | 64.27602 | -9.59500 | 37135 ft | 535 kts | 169° |
| 2026-05-05 00:38 | 64.20351 | -9.55563 | 37131 ft | 535 kts | 169° |
| 2026-05-05 00:39 | 64.13102 | -9.51647 | 37128 ft | 535 kts | 170° |
| 2026-05-05 00:39 | 64.05866 | -9.47760 | 37124 ft | 535 kts | 170° |
| 2026-05-05 00:40 | 63.98984 | -9.44083 | 37121 ft | 535 kts | 170° |
| 2026-05-05 00:40 | 63.91722 | -9.40222 | 37117 ft | 536 kts | 170° |
| 2026-05-05 00:41 | 63.84463 | -9.36384 | 37115 ft | 536 kts | 170° |
| 2026-05-05 00:41 | 63.77179 | -9.32552 | 37113 ft | 536 kts | 170° |
| 2026-05-05 00:42 | 63.69951 | -9.28770 | 37110 ft | 536 kts | 170° |
| 2026-05-05 00:42 | 63.62646 | -9.24969 | 37107 ft | 536 kts | 171° |
| 2026-05-05 00:43 | 63.55420 | -9.21227 | 37104 ft | 535 kts | 171° |
| 2026-05-05 00:43 | 63.48172 | -9.17494 | 37102 ft | 535 kts | 171° |
| 2026-05-05 00:44 | 63.40901 | -9.13768 | 37099 ft | 536 kts | 171° |
| 2026-05-05 00:44 | 63.33622 | -9.10058 | 37096 ft | 536 kts | 171° |
| 2026-05-05 00:45 | 63.26356 | -9.06374 | 37094 ft | 536 kts | 171° |
| 2026-05-05 00:45 | 63.19084 | -9.02705 | 37092 ft | 535 kts | 171° |
| 2026-05-05 00:46 | 63.11824 | -8.99062 | 37091 ft | 535 kts | 171° |
| 2026-05-05 00:46 | 63.04915 | -8.95612 | 37089 ft | 536 kts | 171° |
| 2026-05-05 00:47 | 62.97648 | -8.92001 | 37088 ft | 536 kts | 171° |
| 2026-05-05 00:47 | 62.90363 | -8.88399 | 37088 ft | 536 kts | 171° |
| 2026-05-05 00:48 | 62.83110 | -8.84832 | 37087 ft | 540 kts | 171° |
| 2026-05-05 00:48 | 62.75753 | -8.81232 | 37086 ft | 542 kts | 171° |
| 2026-05-05 00:49 | 62.68379 | -8.77642 | 37085 ft | 542 kts | 172° |
| 2026-05-05 00:49 | 62.62255 | -8.74674 | 37084 ft | 542 kts | 172° |
| 2026-05-05 00:50 | 62.54904 | -8.71129 | 37084 ft | 542 kts | 172° |
| 2026-05-05 00:50 | 62.47528 | -8.67589 | 37084 ft | 542 kts | 172° |
| 2026-05-05 00:51 | 62.40152 | -8.64067 | 37084 ft | 542 kts | 172° |
| 2026-05-05 00:51 | 62.32777 | -8.60563 | 37083 ft | 542 kts | 172° |
| 2026-05-05 00:52 | 62.25439 | -8.57095 | 37083 ft | 543 kts | 172° |
| 2026-05-05 00:52 | 62.18065 | -8.53627 | 37083 ft | 542 kts | 172° |
| 2026-05-05 00:53 | 62.10694 | -8.50177 | 37082 ft | 542 kts | 172° |
| 2026-05-05 00:53 | 62.03341 | -8.46753 | 37085 ft | 542 kts | 172° |
| 2026-05-05 00:54 | 61.96297 | -8.43489 | 37085 ft | 542 kts | 172° |
| 2026-05-05 00:54 | 61.88980 | -8.40114 | 37085 ft | 540 kts | 172° |
| 2026-05-05 00:55 | 61.81586 | -8.36721 | 37085 ft | 540 kts | 172° |
| 2026-05-05 00:55 | 61.74226 | -8.33359 | 37085 ft | 541 kts | 172° |
| 2026-05-05 00:56 | 61.66870 | -8.30016 | 37085 ft | 540 kts | 172° |
| 2026-05-05 00:56 | 61.59547 | -8.26704 | 37085 ft | 540 kts | 172° |
| 2026-05-05 00:57 | 61.52185 | -8.23391 | 37085 ft | 540 kts | 173° |
| 2026-05-05 00:57 | 61.44852 | -8.20106 | 37085 ft | 540 kts | 173° |
| 2026-05-05 00:58 | 61.37497 | -8.16828 | 37086 ft | 539 kts | 172° |
| 2026-05-05 00:58 | 61.30172 | -8.13578 | 37086 ft | 539 kts | 173° |
| 2026-05-05 00:59 | 61.22826 | -8.10335 | 37086 ft | 538 kts | 173° |
| 2026-05-05 00:59 | 61.15814 | -8.07254 | 37086 ft | 538 kts | 173° |
| 2026-05-05 01:00 | 61.08548 | -8.04059 | 37086 ft | 537 kts | 172° |
| 2026-05-05 01:00 | 61.01240 | -8.00856 | 37086 ft | 536 kts | 173° |
| 2026-05-05 01:01 | 60.94283 | -7.97854 | 37086 ft | 535 kts | 173° |
| 2026-05-05 01:01 | 60.86986 | -7.94721 | 37086 ft | 534 kts | 173° |
| 2026-05-05 01:02 | 60.79735 | -7.91504 | 37084 ft | 535 kts | 169° |
| 2026-05-05 01:02 | 60.72663 | -7.86569 | 37086 ft | 538 kts | 162° |
| 2026-05-05 01:03 | 60.65809 | -7.80575 | 37085 ft | 540 kts | 160° |
| 2026-05-05 01:03 | 60.58902 | -7.74514 | 37085 ft | 541 kts | 161° |
| 2026-05-05 01:04 | 60.51952 | -7.68649 | 37085 ft | 540 kts | 161° |
| 2026-05-05 01:04 | 60.41559 | -7.59920 | 37083 ft | 539 kts | 161° |
| 2026-05-05 01:05 | 60.34651 | -7.54130 | 37083 ft | 538 kts | 161° |
| 2026-05-05 01:05 | 60.27706 | -7.48381 | 37082 ft | 539 kts | 161° |
| 2026-05-05 01:06 | 60.20762 | -7.42673 | 37081 ft | 538 kts | 161° |
| 2026-05-05 01:06 | 60.14326 | -7.37410 | 37080 ft | 538 kts | 162° |
| 2026-05-05 01:07 | 60.07400 | -7.31774 | 37078 ft | 538 kts | 162° |
| 2026-05-05 01:07 | 60.00438 | -7.26133 | 37077 ft | 538 kts | 162° |
| 2026-05-05 01:08 | 59.93512 | -7.20547 | 37063 ft | 535 kts | 162° |
| 2026-05-05 01:08 | 59.87292 | -7.15552 | 37062 ft | 532 kts | 162° |
| 2026-05-05 01:09 | 59.80433 | -7.10067 | 37062 ft | 533 kts | 162° |
| 2026-05-05 01:09 | 59.73869 | -7.04840 | 37062 ft | 533 kts | 162° |
| 2026-05-05 01:10 | 59.67020 | -6.99411 | 37061 ft | 533 kts | 162° |
| 2026-05-05 01:10 | 59.60139 | -6.93980 | 37060 ft | 532 kts | 162° |
| 2026-05-05 01:11 | 59.53254 | -6.88570 | 37060 ft | 532 kts | 162° |
| 2026-05-05 01:11 | 59.46363 | -6.83179 | 37060 ft | 532 kts | 162° |
| 2026-05-05 01:12 | 59.39495 | -6.77830 | 37060 ft | 531 kts | 162° |
| 2026-05-05 01:12 | 59.32647 | -6.72519 | 37060 ft | 531 kts | 162° |
| 2026-05-05 01:13 | 59.25783 | -6.67219 | 37059 ft | 531 kts | 162° |
| 2026-05-05 01:13 | 59.18903 | -6.61931 | 37059 ft | 530 kts | 162° |
| 2026-05-05 01:14 | 59.12019 | -6.56661 | 37058 ft | 530 kts | 162° |
| 2026-05-05 01:14 | 59.05170 | -6.51441 | 37058 ft | 529 kts | 162° |
| 2026-05-05 01:15 | 58.98307 | -6.46233 | 37058 ft | 528 kts | 162° |
| 2026-05-05 01:15 | 58.91470 | -6.41067 | 37059 ft | 528 kts | 162° |
| 2026-05-05 01:16 | 58.84610 | -6.35906 | 37058 ft | 528 kts | 162° |
| 2026-05-05 01:16 | 58.77801 | -6.30804 | 37057 ft | 527 kts | 162° |
| 2026-05-05 01:17 | 58.71098 | -6.25803 | 37051 ft | 526 kts | 162° |
| 2026-05-05 01:17 | 58.64269 | -6.20730 | 37051 ft | 525 kts | 162° |
| 2026-05-05 01:18 | 58.57489 | -6.15713 | 37051 ft | 525 kts | 162° |
| 2026-05-05 01:18 | 58.50626 | -6.10657 | 37051 ft | 524 kts | 162° |
| 2026-05-05 01:19 | 58.43892 | -6.05715 | 37051 ft | 524 kts | 162° |
| 2026-05-05 01:19 | 58.37059 | -6.00722 | 37051 ft | 523 kts | 162° |
| 2026-05-05 01:20 | 58.30287 | -5.95795 | 37051 ft | 523 kts | 163° |
| 2026-05-05 01:20 | 58.23508 | -5.90882 | 37052 ft | 523 kts | 163° |
| 2026-05-05 01:21 | 58.17011 | -5.86192 | 37052 ft | 522 kts | 163° |
| 2026-05-05 01:21 | 58.10219 | -5.81309 | 37053 ft | 522 kts | 163° |
| 2026-05-05 01:22 | 58.03401 | -5.76427 | 37052 ft | 522 kts | 163° |
| 2026-05-05 01:22 | 57.96609 | -5.71584 | 37051 ft | 522 kts | 163° |
| 2026-05-05 01:23 | 57.89836 | -5.66774 | 37051 ft | 522 kts | 163° |
| 2026-05-05 01:23 | 57.83030 | -5.61960 | 37049 ft | 522 kts | 163° |
| 2026-05-05 01:24 | 57.76240 | -5.57177 | 37046 ft | 522 kts | 163° |
| 2026-05-05 01:24 | 57.69433 | -5.52401 | 37044 ft | 521 kts | 163° |
| 2026-05-05 01:25 | 57.62638 | -5.47652 | 37043 ft | 521 kts | 163° |
| 2026-05-05 01:25 | 57.55845 | -5.42924 | 37042 ft | 521 kts | 163° |
| 2026-05-05 01:26 | 57.49078 | -5.38234 | 37045 ft | 521 kts | 163° |
| 2026-05-05 01:26 | 57.42281 | -5.33540 | 37040 ft | 520 kts | 163° |
| 2026-05-05 01:27 | 57.35489 | -5.28868 | 37039 ft | 520 kts | 163° |
| 2026-05-05 01:27 | 57.28706 | -5.24221 | 37039 ft | 520 kts | 163° |
| 2026-05-05 01:28 | 57.21906 | -5.19581 | 37039 ft | 520 kts | 163° |
| 2026-05-05 01:28 | 57.15141 | -5.14983 | 37039 ft | 520 kts | 163° |
| 2026-05-05 01:29 | 57.08388 | -5.10411 | 37040 ft | 519 kts | 163° |
| 2026-05-05 01:29 | 57.01591 | -5.05827 | 37041 ft | 519 kts | 163° |
| 2026-05-05 01:30 | 56.94828 | -5.01283 | 37042 ft | 518 kts | 163° |
| 2026-05-05 01:30 | 56.88058 | -4.96753 | 37043 ft | 517 kts | 163° |
| 2026-05-05 01:31 | 56.81291 | -4.92241 | 37045 ft | 517 kts | 163° |
| 2026-05-05 01:31 | 56.74513 | -4.87741 | 37047 ft | 517 kts | 163° |
| 2026-05-05 01:32 | 56.67795 | -4.83297 | 37048 ft | 516 kts | 163° |
| 2026-05-05 01:32 | 56.61002 | -4.78820 | 37050 ft | 516 kts | 163° |
| 2026-05-05 01:33 | 56.54284 | -4.74409 | 37051 ft | 516 kts | 163° |
| 2026-05-05 01:33 | 56.47528 | -4.69991 | 37052 ft | 516 kts | 163° |
| 2026-05-05 01:34 | 56.40780 | -4.65594 | 37052 ft | 515 kts | 163° |
| 2026-05-05 01:34 | 56.35159 | -4.61944 | 37053 ft | 515 kts | 163° |
| 2026-05-05 01:35 | 56.28434 | -4.57593 | 37053 ft | 514 kts | 163° |
| 2026-05-05 01:35 | 56.21699 | -4.53251 | 37052 ft | 514 kts | 163° |
| 2026-05-05 01:36 | 56.14960 | -4.48923 | 37052 ft | 513 kts | 163° |
| 2026-05-05 01:36 | 56.08271 | -4.44643 | 37052 ft | 513 kts | 163° |
| 2026-05-05 01:37 | 56.00412 | -4.39634 | 37052 ft | 513 kts | 163° |
| 2026-05-05 01:37 | 55.94812 | -4.36079 | 37051 ft | 512 kts | 163° |
| 2026-05-05 01:38 | 55.88089 | -4.31824 | 37052 ft | 512 kts | 163° |
| 2026-05-05 01:38 | 55.81504 | -4.27672 | 37052 ft | 512 kts | 163° |
| 2026-05-05 01:39 | 55.74794 | -4.23415 | 37051 ft | 512 kts | 163° |
| 2026-05-05 01:39 | 55.68074 | -4.19211 | 37050 ft | 512 kts | 163° |
| 2026-05-05 01:40 | 55.61335 | -4.15026 | 37049 ft | 512 kts | 163° |
| 2026-05-05 01:40 | 55.54614 | -4.10863 | 37049 ft | 511 kts | 163° |
| 2026-05-05 01:41 | 55.47982 | -4.06303 | 37047 ft | 513 kts | 156° |
| 2026-05-05 01:41 | 55.41750 | -4.00250 | 37047 ft | 514 kts | 152° |
| 2026-05-05 01:42 | 55.35552 | -3.94113 | 37046 ft | 514 kts | 153° |
| 2026-05-05 01:42 | 55.29263 | -3.88081 | 37045 ft | 514 kts | 153° |
| 2026-05-05 01:43 | 55.22998 | -3.82075 | 37043 ft | 513 kts | 153° |
| 2026-05-05 01:43 | 55.16768 | -3.76119 | 37042 ft | 512 kts | 153° |
| 2026-05-05 01:44 | 55.10482 | -3.70128 | 37041 ft | 512 kts | 153° |
| 2026-05-05 01:44 | 55.04262 | -3.64222 | 37040 ft | 511 kts | 153° |
| 2026-05-05 01:45 | 54.98032 | -3.58290 | 37052 ft | 510 kts | 152° |
| 2026-05-05 01:45 | 54.91786 | -3.52373 | 37047 ft | 510 kts | 153° |
| 2026-05-05 01:46 | 54.85529 | -3.46519 | 37044 ft | 510 kts | 153° |
| 2026-05-05 01:46 | 54.79292 | -3.40702 | 37044 ft | 509 kts | 153° |
| 2026-05-05 01:47 | 54.73087 | -3.34926 | 37044 ft | 509 kts | 153° |
| 2026-05-05 01:47 | 54.66690 | -3.29598 | 37041 ft | 508 kts | 158° |
| 2026-05-05 01:48 | 54.60154 | -3.24942 | 37043 ft | 507 kts | 159° |
| 2026-05-05 01:48 | 54.53696 | -3.20228 | 37044 ft | 507 kts | 158° |
| 2026-05-05 01:49 | 54.47233 | -3.15339 | 37046 ft | 506 kts | 157° |
| 2026-05-05 01:49 | 54.40877 | -3.10613 | 37049 ft | 506 kts | 158° |
| 2026-05-05 01:50 | 54.34463 | -3.05878 | 37051 ft | 506 kts | 158° |
| 2026-05-05 01:50 | 54.28029 | -3.01139 | 37053 ft | 506 kts | 158° |
| 2026-05-05 01:51 | 54.21531 | -2.96483 | 37056 ft | 505 kts | 160° |
| 2026-05-05 01:51 | 54.14888 | -2.92613 | 37059 ft | 505 kts | 163° |
| 2026-05-05 01:52 | 54.08187 | -2.88999 | 37063 ft | 504 kts | 163° |
| 2026-05-05 01:52 | 54.01618 | -2.85336 | 37069 ft | 504 kts | 162° |
| 2026-05-05 01:53 | 53.94990 | -2.81599 | 37065 ft | 503 kts | 162° |
| 2026-05-05 01:53 | 53.88570 | -2.77947 | 37065 ft | 501 kts | 161° |
| 2026-05-05 01:54 | 53.81989 | -2.74185 | 37059 ft | 501 kts | 161° |
| 2026-05-05 01:54 | 53.75321 | -2.70413 | 37061 ft | 501 kts | 162° |
| 2026-05-05 01:55 | 53.68756 | -2.66719 | 37062 ft | 501 kts | 162° |
| 2026-05-05 01:55 | 53.62133 | -2.63007 | 37063 ft | 501 kts | 162° |
| 2026-05-05 01:56 | 53.55503 | -2.59303 | 37064 ft | 501 kts | 162° |
| 2026-05-05 01:56 | 53.48895 | -2.55624 | 37064 ft | 501 kts | 162° |
| 2026-05-05 01:57 | 53.42284 | -2.51956 | 37063 ft | 501 kts | 162° |
| 2026-05-05 01:57 | 53.35665 | -2.48295 | 37060 ft | 501 kts | 162° |
| 2026-05-05 01:58 | 53.29059 | -2.44620 | 36986 ft | 502 kts | 162° |
| 2026-05-05 01:58 | 53.25735 | -2.42789 | 36488 ft | 502 kts | 162° |
| 2026-05-05 01:58 | 53.22463 | -2.40996 | 35996 ft | 501 kts | 162° |
| 2026-05-05 01:59 | 53.19128 | -2.39175 | 35493 ft | 502 kts | 161° |
| 2026-05-05 01:59 | 53.15825 | -2.37375 | 34995 ft | 503 kts | 161° |
| 2026-05-05 01:59 | 53.12495 | -2.35562 | 34494 ft | 504 kts | 161° |
| 2026-05-05 01:59 | 53.09134 | -2.33733 | 33991 ft | 504 kts | 161° |
| 2026-05-05 02:00 | 53.05810 | -2.31835 | 33488 ft | 505 kts | 158° |
| 2026-05-05 02:00 | 53.02635 | -2.29494 | 32991 ft | 504 kts | 153° |
| 2026-05-05 02:00 | 52.99504 | -2.26770 | 32488 ft | 504 kts | 150° |
| 2026-05-05 02:00 | 52.96460 | -2.23843 | 31987 ft | 505 kts | 148° |
| 2026-05-05 02:01 | 52.93515 | -2.20798 | 31492 ft | 505 kts | 147° |
| 2026-05-05 02:01 | 52.90560 | -2.17619 | 30990 ft | 506 kts | 146° |
| 2026-05-05 02:01 | 52.87594 | -2.14429 | 30487 ft | 506 kts | 146° |
| 2026-05-05 02:01 | 52.84637 | -2.11298 | 29988 ft | 507 kts | 147° |
| 2026-05-05 02:02 | 52.81649 | -2.08173 | 29487 ft | 507 kts | 147° |
| 2026-05-05 02:02 | 52.78663 | -2.05072 | 28987 ft | 508 kts | 147° |
| 2026-05-05 02:02 | 52.75674 | -2.01978 | 28487 ft | 509 kts | 147° |
| 2026-05-05 02:02 | 52.72669 | -1.98861 | 27983 ft | 506 kts | 147° |
| 2026-05-05 02:03 | 52.69767 | -1.95807 | 27495 ft | 499 kts | 147° |
| 2026-05-05 02:03 | 52.66831 | -1.92739 | 26990 ft | 487 kts | 148° |
| 2026-05-05 02:03 | 52.64019 | -1.89821 | 26497 ft | 476 kts | 148° |
| 2026-05-05 02:03 | 52.61249 | -1.86962 | 26002 ft | 467 kts | 149° |
| 2026-05-05 02:04 | 52.58520 | -1.84152 | 25503 ft | 459 kts | 149° |
| 2026-05-05 02:04 | 52.55826 | -1.81384 | 25003 ft | 452 kts | 149° |
| 2026-05-05 02:04 | 52.53163 | -1.78652 | 24501 ft | 447 kts | 149° |
| 2026-05-05 02:04 | 52.50547 | -1.75973 | 24005 ft | 443 kts | 150° |
| 2026-05-05 02:05 | 52.47957 | -1.73310 | 23507 ft | 439 kts | 149° |
| 2026-05-05 02:05 | 52.45387 | -1.70646 | 23008 ft | 433 kts | 149° |
| 2026-05-05 02:05 | 52.42856 | -1.68052 | 22512 ft | 430 kts | 149° |
| 2026-05-05 02:05 | 52.40323 | -1.65476 | 22012 ft | 429 kts | 149° |
| 2026-05-05 02:06 | 52.37781 | -1.62899 | 21509 ft | 427 kts | 149° |
| 2026-05-05 02:06 | 52.35253 | -1.60343 | 21006 ft | 425 kts | 149° |
| 2026-05-05 02:06 | 52.32740 | -1.57803 | 20504 ft | 423 kts | 149° |
| 2026-05-05 02:06 | 52.30251 | -1.55292 | 20004 ft | 421 kts | 149° |
| 2026-05-05 02:07 | 52.27756 | -1.52776 | 19502 ft | 419 kts | 149° |
| 2026-05-05 02:07 | 52.25287 | -1.50288 | 19002 ft | 416 kts | 149° |
| 2026-05-05 02:07 | 52.22843 | -1.47793 | 18502 ft | 415 kts | 147° |
| 2026-05-05 02:07 | 52.20502 | -1.45024 | 18000 ft | 414 kts | 142° |
| 2026-05-05 02:08 | 52.18293 | -1.42115 | 17504 ft | 412 kts | 141° |
| 2026-05-05 02:08 | 52.16106 | -1.39122 | 17004 ft | 410 kts | 140° |
| 2026-05-05 02:08 | 52.13924 | -1.36071 | 16498 ft | 408 kts | 139° |
| 2026-05-05 02:08 | 52.11810 | -1.33106 | 16108 ft | 403 kts | 140° |
| 2026-05-05 02:09 | 52.09706 | -1.30158 | 15734 ft | 395 kts | 139° |
| 2026-05-05 02:09 | 52.07655 | -1.27241 | 15358 ft | 387 kts | 139° |
| 2026-05-05 02:09 | 52.05640 | -1.24395 | 14987 ft | 380 kts | 140° |
| 2026-05-05 02:09 | 52.03664 | -1.21633 | 14692 ft | 372 kts | 140° |
| 2026-05-05 02:10 | 52.01701 | -1.18905 | 14316 ft | 366 kts | 140° |
| 2026-05-05 02:10 | 51.99780 | -1.16244 | 13941 ft | 362 kts | 140° |
| 2026-05-05 02:10 | 51.97873 | -1.13606 | 13565 ft | 357 kts | 140° |
| 2026-05-05 02:10 | 51.95991 | -1.11006 | 13189 ft | 352 kts | 140° |
| 2026-05-05 02:11 | 51.94141 | -1.08451 | 12815 ft | 348 kts | 140° |
| 2026-05-05 02:11 | 51.92308 | -1.05922 | 12450 ft | 344 kts | 140° |
| 2026-05-05 02:11 | 51.90514 | -1.03447 | 12136 ft | 339 kts | 140° |
| 2026-05-05 02:11 | 51.88735 | -1.00993 | 11836 ft | 334 kts | 140° |
| 2026-05-05 02:12 | 51.87070 | -0.98559 | 11543 ft | 328 kts | 135° |
| 2026-05-05 02:12 | 51.84376 | -0.92625 | 10951 ft | 319 kts | 121° |
| 2026-05-05 02:12 | 51.83291 | -0.89513 | 10676 ft | 314 kts | 118° |
| 2026-05-05 02:13 | 51.82304 | -0.86400 | 10401 ft | 310 kts | 116° |
| 2026-05-05 02:13 | 51.81358 | -0.83282 | 10125 ft | 306 kts | 115° |
| 2026-05-05 02:13 | 51.80431 | -0.80237 | 9863 ft | 303 kts | 115° |
| 2026-05-05 02:13 | 51.79504 | -0.77215 | 9611 ft | 298 kts | 115° |
| 2026-05-05 02:14 | 51.78605 | -0.74300 | 9340 ft | 278 kts | 115° |
| 2026-05-05 02:14 | 51.77774 | -0.71615 | 9077 ft | 261 kts | 115° |
| 2026-05-05 02:14 | 51.76974 | -0.69029 | 8832 ft | 257 kts | 115° |
| 2026-05-05 02:14 | 51.76159 | -0.66402 | 8584 ft | 260 kts | 115° |
| 2026-05-05 02:15 | 51.75361 | -0.63826 | 8297 ft | 260 kts | 115° |
| 2026-05-05 02:15 | 51.74542 | -0.61184 | 7994 ft | 260 kts | 115° |
| 2026-05-05 02:15 | 51.73725 | -0.58583 | 7693 ft | 260 kts | 117° |
| 2026-05-05 02:15 | 51.72774 | -0.56262 | 7410 ft | 260 kts | 126° |
| 2026-05-05 02:16 | 51.71403 | -0.54420 | 7102 ft | 259 kts | 151° |
| 2026-05-05 02:16 | 51.69681 | -0.53856 | 7025 ft | 252 kts | 179° |
| 2026-05-05 02:16 | 51.67981 | -0.54374 | 7040 ft | 246 kts | 193° |
| 2026-05-05 02:16 | 51.66411 | -0.55439 | 6990 ft | 248 kts | 208° |
| 2026-05-05 02:17 | 51.65044 | -0.57182 | 6971 ft | 250 kts | 226° |
| 2026-05-05 02:17 | 51.64040 | -0.59447 | 6862 ft | 247 kts | 240° |
| 2026-05-05 02:17 | 51.63305 | -0.61893 | 6746 ft | 238 kts | 244° |
| 2026-05-05 02:17 | 51.62605 | -0.64263 | 6615 ft | 231 kts | 245° |
| 2026-05-05 02:18 | 51.61927 | -0.66564 | 6485 ft | 226 kts | 245° |
| 2026-05-05 02:18 | 51.61276 | -0.68764 | 6361 ft | 222 kts | 245° |
| 2026-05-05 02:18 | 51.60612 | -0.70998 | 6235 ft | 222 kts | 245° |
| 2026-05-05 02:18 | 51.59942 | -0.73251 | 6066 ft | 222 kts | 245° |
| 2026-05-05 02:19 | 51.59276 | -0.75496 | 5851 ft | 222 kts | 244° |
| 2026-05-05 02:19 | 51.58439 | -0.77568 | 5622 ft | 222 kts | 230° |
| 2026-05-05 02:19 | 51.57240 | -0.79097 | 5378 ft | 222 kts | 208° |
| 2026-05-05 02:19 | 51.55765 | -0.79691 | 5113 ft | 221 kts | 187° |
| 2026-05-05 02:20 | 51.54245 | -0.79762 | 4852 ft | 220 kts | 180° |
| 2026-05-05 02:20 | 51.52703 | -0.79718 | 4599 ft | 218 kts | 178° |
| 2026-05-05 02:20 | 51.51191 | -0.79663 | 4205 ft | 224 kts | 177° |
| 2026-05-05 02:20 | 51.49631 | -0.79417 | 3792 ft | 227 kts | 166° |
| 2026-05-05 02:21 | 51.48246 | -0.78345 | 3621 ft | 214 kts | 142° |
| 2026-05-05 02:21 | 51.47344 | -0.76606 | 3459 ft | 195 kts | 120° |
| 2026-05-05 02:21 | 51.46866 | -0.74630 | 3294 ft | 190 kts | 104° |
| 2026-05-05 02:21 | 51.46647 | -0.72544 | 3036 ft | 186 kts | 95° |
| 2026-05-05 02:22 | 51.46518 | -0.70524 | 2784 ft | 179 kts | 92° |
| 2026-05-05 02:22 | 51.46446 | -0.68618 | 2551 ft | 175 kts | 89° |
| 2026-05-05 02:22 | 51.46427 | -0.66739 | 2333 ft | 166 kts | 87° |
| 2026-05-05 02:22 | 51.46428 | -0.64898 | 2111 ft | 162 kts | 86° |
| 2026-05-05 02:23 | 51.46430 | -0.63708 | 1971 ft | 161 kts | 86° |
| 2026-05-05 02:23 | 51.46436 | -0.61906 | 1758 ft | 162 kts | 86° |
| 2026-05-05 02:23 | 51.46441 | -0.60130 | 1537 ft | 154 kts | 86° |
| 2026-05-05 02:23 | 51.46448 | -0.57923 | 1273 ft | 148 kts | 86° |
| 2026-05-05 02:24 | 51.46452 | -0.56805 | 1155 ft | 145 kts | 86° |
| 2026-05-05 02:24 | 51.46457 | -0.55214 | 960 ft | 143 kts | 86° |
| 2026-05-05 02:24 | 51.46462 | -0.53612 | 767 ft | 142 kts | 86° |
| 2026-05-05 02:24 | 51.46467 | -0.52049 | 581 ft | 142 kts | 86° |
| 2026-05-05 02:25 | 51.46472 | -0.50458 | 393 ft | 141 kts | 87° |
| 2026-05-05 02:25 | 51.46477 | -0.48903 | 208 ft | 141 kts | 87° |
| 2026-05-05 02:25 | 51.46482 | -0.47345 | 99 ft | 128 kts | 88° |
| 2026-05-05 02:25 | 51.46500 | -0.46149 | 97 ft | 81 kts | 89° |
| 2026-05-05 02:26 | 51.46492 | -0.45529 | 97 ft | 34 kts | 90° |
| 2026-05-05 02:26 | 51.46528 | -0.45260 | 97 ft | 20 kts | 64° |
| 2026-05-05 02:26 | 51.46580 | -0.45121 | 97 ft | 11 kts | 47° |
| 2026-05-05 02:26 | 51.46596 | -0.45100 | 97 ft | 0 kts | 30° |
| 2026-05-05 02:27 | 51.46612 | -0.45089 | 97 ft | 5 kts | 20° |
| 2026-05-05 02:28 | 51.46648 | -0.45078 | 97 ft | 5 kts | 6° |
| 2026-05-05 02:28 | 51.46700 | -0.45076 | 97 ft | 9 kts | 352° |
| 2026-05-05 02:28 | 51.46744 | -0.45137 | 97 ft | 9 kts | 289° |
| 2026-05-05 02:28 | 51.46750 | -0.45231 | 97 ft | 7 kts | 271° |
| 2026-05-05 02:29 | 51.46751 | -0.45237 | 97 ft | 0 kts | 271° |
| 2026-05-05 02:29 | 51.46751 | -0.45238 | 97 ft | 0 kts | 271° |
| 2026-05-05 02:33 | 51.46751 | -0.45239 | 97 ft | 0 kts | 271° |
| 2026-05-05 02:33 | 51.46751 | -0.45296 | 97 ft | 10 kts | 270° |
| 2026-05-05 02:33 | 51.46751 | -0.45415 | 97 ft | 10 kts | 270° |
| 2026-05-05 02:33 | 51.46752 | -0.45513 | 97 ft | 11 kts | 270° |
| 2026-05-05 02:34 | 51.46751 | -0.45627 | 97 ft | 13 kts | 269° |
| 2026-05-05 02:34 | 51.46750 | -0.45778 | 97 ft | 14 kts | 269° |
| 2026-05-05 02:34 | 51.46748 | -0.45959 | 97 ft | 17 kts | 270° |
| 2026-05-05 02:34 | 51.46748 | -0.46146 | 97 ft | 16 kts | 270° |
| 2026-05-05 02:35 | 51.46748 | -0.46310 | 97 ft | 11 kts | 270° |
| 2026-05-05 02:35 | 51.46772 | -0.46415 | 97 ft | 10 kts | 314° |
| 2026-05-05 02:35 | 51.46825 | -0.46480 | 97 ft | 9 kts | 324° |
| 2026-05-05 02:35 | 51.46879 | -0.46539 | 97 ft | 9 kts | 326° |
| 2026-05-05 02:36 | 51.46922 | -0.46550 | 97 ft | 6 kts | 28° |
| 2026-05-05 02:36 | 51.46945 | -0.46512 | 97 ft | 3 kts | 50° |
| 2026-05-05 02:36 | 51.46955 | -0.46490 | 97 ft | 1 kts | 55° |
| 2026-05-05 02:36 | 51.46958 | -0.46484 | 97 ft | 0 kts | 56° |
| 2026-05-05 02:37 | 51.46959 | -0.46482 | 97 ft | 0 kts | 56° |
| 2026-05-05 02:37 | 51.46960 | -0.46479 | 97 ft | 0 kts | 56° |
| 2026-05-05 02:37 | 51.46962 | -0.46476 | 97 ft | 0 kts | 55° |
| 2026-05-05 02:38 | 51.46962 | -0.46475 | 97 ft | 0 kts | 55° |
| 2026-05-05 02:42 | 51.46961 | -0.46478 | 97 ft | 0 kts | 55° |
| 2026-05-05 02:42 | 51.46960 | -0.46479 | 97 ft | 1 kts | 55° |
| 2026-05-05 02:43 | 51.46958 | -0.46483 | 97 ft | 0 kts | 55° |
| 2026-05-05 02:43 | 51.46959 | -0.46482 | 97 ft | 0 kts | 55° |
| 2026-05-05 02:43 | 51.46959 | -0.46483 | 97 ft | 1 kts | 55° |
| 2026-05-05 02:43 | 51.46962 | -0.46475 | 97 ft | 0 kts | 56° |